Time;durP1;ratioP1;P1;durP2;ratioP2;P2;SDS_P1;SDS_P2;PMS_P1;PMS_P2;Temp;Humidity;BMP_temperature;BMP_pressure;BME280_temperature;BME280_humidity;BME280_pressure;Samples;Min_cycle;Max_cycle;Signal;HPM_P1;HPM_P2
2022/12/21 00:01:26;;;;;;;92.97;35.35;;;8.70;99.90;;;;;;5044384;28;20051;-76
2022/12/21 00:03:55;;;;;;;74.95;34.70;;;8.70;99.90;;;;;;5033038;28;20053;-75
2022/12/21 00:06:23;;;;;;;95.07;37.22;;;8.70;99.90;;;;;;5050780;28;20037;-75
2022/12/21 00:08:50;;;;;;;93.65;36.05;;;8.80;99.90;;;;;;5049067;28;22150;-75
2022/12/21 00:11:16;;;;;;;81.95;36.17;;;8.80;99.90;;;;;;5046269;28;20041;-75
2022/12/21 00:13:42;;;;;;;80.72;35.45;;;8.70;99.90;;;;;;5033441;28;20044;-76
2022/12/21 00:16:11;;;;;;;81.88;35.80;;;8.70;99.90;;;;;;5049861;28;20064;-75
2022/12/21 00:18:39;;;;;;;101.53;36.85;;;8.70;99.90;;;;;;5049158;28;20402;-75
2022/12/21 00:21:17;;;;;;;94.13;35.38;;;8.60;99.90;;;;;;5045052;28;20033;-75
2022/12/21 00:23:45;;;;;;;87.97;35.38;;;8.60;99.90;;;;;;5025014;28;20547;-75
2022/12/21 00:26:13;;;;;;;87.10;35.15;;;8.60;99.90;;;;;;5050607;28;20033;-75
2022/12/21 00:28:38;;;;;;;93.88;35.28;;;8.50;99.90;;;;;;5037833;28;20033;-76
2022/12/21 00:31:05;;;;;;;93.00;36.55;;;8.60;99.90;;;;;;5052818;28;20086;-75
2022/12/21 00:33:31;;;;;;;91.93;36.65;;;8.60;99.90;;;;;;5033530;28;20067;-76
2022/12/21 00:35:58;;;;;;;98.20;35.75;;;8.60;99.90;;;;;;5053157;28;20375;-76
2022/12/21 00:38:24;;;;;;;99.90;36.92;;;8.50;99.90;;;;;;5041671;28;20056;-75
2022/12/21 00:40:56;;;;;;;96.72;36.40;;;8.40;99.90;;;;;;5049702;28;20033;-75
2022/12/21 00:43:21;;;;;;;110.80;36.08;;;8.50;99.90;;;;;;5050902;28;20407;-76
2022/12/21 00:45:47;;;;;;;97.47;36.40;;;8.40;99.90;;;;;;5061895;28;20055;-75
2022/12/21 00:48:13;;;;;;;103.25;37.83;;;8.50;99.90;;;;;;5050438;28;20033;-75
2022/12/21 00:50:38;;;;;;;96.75;36.60;;;8.40;99.90;;;;;;5041129;28;20445;-76
2022/12/21 00:53:04;;;;;;;99.38;38.10;;;8.50;99.90;;;;;;5042326;28;20084;-76
2022/12/21 00:55:29;;;;;;;94.68;36.20;;;8.50;99.90;;;;;;5042695;28;20069;-76
2022/12/21 00:57:57;;;;;;;117.40;37.63;;;8.50;99.90;;;;;;5043433;28;20501;-75
2022/12/21 01:00:22;;;;;;;107.70;38.15;;;8.50;99.90;;;;;;5036893;28;20041;-76
2022/12/21 01:02:48;;;;;;;102.18;38.05;;;8.40;99.90;;;;;;5034359;28;20052;-75
2022/12/21 01:05:14;;;;;;;99.57;37.47;;;8.50;99.90;;;;;;5045746;28;20067;-75
2022/12/21 01:07:39;;;;;;;119.10;38.13;;;8.50;99.90;;;;;;5045114;28;20047;-75
2022/12/21 01:10:05;;;;;;;100.35;38.00;;;8.50;99.90;;;;;;5041865;28;20041;-76
2022/12/21 01:12:31;;;;;;;100.15;37.85;;;8.50;99.90;;;;;;5041391;28;20552;-76
2022/12/21 01:14:56;;;;;;;106.95;35.88;;;8.50;99.90;;;;;;5039862;28;20120;-76
2022/12/21 01:17:22;;;;;;;98.25;35.15;;;8.60;99.90;;;;;;5035798;28;20110;-75
2022/12/21 01:19:51;;;;;;;89.20;33.88;;;8.50;99.90;;;;;;5032829;28;20073;-76
2022/12/21 01:22:16;;;;;;;112.28;35.70;;;8.50;99.90;;;;;;5032856;28;20029;-75
2022/12/21 01:24:42;;;;;;;89.78;34.47;;;8.50;99.90;;;;;;5032396;28;20041;-75
2022/12/21 01:27:08;;;;;;;98.22;34.15;;;8.50;99.90;;;;;;5025650;28;20029;-75
2022/12/21 01:29:33;;;;;;;90.80;35.17;;;8.50;99.90;;;;;;5027904;28;20099;-76
2022/12/21 01:31:59;;;;;;;109.53;33.30;;;8.40;99.90;;;;;;5028049;28;20524;-76
2022/12/21 01:34:25;;;;;;;103.10;35.00;;;8.50;99.90;;;;;;5027371;28;20064;-76
2022/12/21 01:36:53;;;;;;;113.60;35.33;;;8.40;99.90;;;;;;5032030;28;20037;-75
2022/12/21 01:39:19;;;;;;;81.93;33.30;;;8.50;99.90;;;;;;5026667;28;20049;-75
2022/12/21 01:41:44;;;;;;;89.38;32.72;;;8.50;99.90;;;;;;5006651;28;20357;-76
2022/12/21 01:44:47;;;;;;;94.05;33.13;;;8.50;99.90;;;;;;5029978;28;20049;-75
2022/12/21 01:47:17;;;;;;;110.45;32.92;;;8.40;99.90;;;;;;5032256;28;20063;-76
2022/12/21 01:49:44;;;;;;;99.05;32.90;;;8.40;99.90;;;;;;5033826;28;20046;-76
2022/12/21 01:52:12;;;;;;;105.60;31.95;;;8.50;99.90;;;;;;5016514;28;20045;-75
2022/12/21 01:54:43;;;;;;;;;;;8.40;99.90;;;;;;5032620;28;20049;-76
2022/12/21 01:57:10;;;;;;;94.15;31.42;;;8.30;99.90;;;;;;5028470;28;19920;-76
2022/12/21 01:59:40;;;;;;;73.53;27.75;;;8.30;99.90;;;;;;5030046;28;20068;-76
2022/12/21 02:02:20;;;;;;;69.72;27.77;;;8.20;99.90;;;;;;5027174;28;20045;-76
2022/12/21 02:04:46;;;;;;;71.28;26.35;;;8.20;99.90;;;;;;5043879;28;20406;-76
2022/12/21 02:07:12;;;;;;;71.55;25.98;;;8.20;99.90;;;;;;5032031;28;20403;-76
2022/12/21 02:09:39;;;;;;;73.35;26.25;;;8.20;99.90;;;;;;5026726;28;20387;-76
2022/12/21 02:12:08;;;;;;;68.07;26.40;;;8.20;99.90;;;;;;5018271;28;20531;-77
2022/12/21 02:14:38;;;;;;;65.78;25.92;;;8.20;99.90;;;;;;5031442;28;20050;-76
2022/12/21 02:17:33;;;;;;;57.78;24.45;;;8.20;99.90;;;;;;5025042;28;20443;-76
2022/12/21 02:20:17;;;;;;;55.88;25.48;;;8.10;99.90;;;;;;5022662;28;20060;-76
2022/12/21 02:23:20;;;;;;;70.40;26.75;;;8.20;99.90;;;;;;5021821;28;20033;-76
2022/12/21 02:26:12;;;;;;;63.72;25.95;;;8.10;99.90;;;;;;5021156;28;20056;-76
2022/12/21 02:29:26;;;;;;;64.45;25.33;;;8.20;99.90;;;;;;5024459;28;20157;-76
2022/12/21 02:32:07;;;;;;;66.88;26.42;;;8.20;99.90;;;;;;4962404;28;20154;-76
2022/12/21 02:34:53;;;;;;;100.40;27.38;;;8.10;99.90;;;;;;5030159;28;20033;-76
2022/12/21 02:37:27;;;;;;;75.68;26.48;;;8.10;99.90;;;;;;5019818;28;20104;-75
2022/12/21 02:40:09;;;;;;;70.55;26.27;;;8.10;99.90;;;;;;5029180;28;20042;-75
2022/12/21 02:45:42;;;;;;;70.43;26.52;;;8.20;99.90;;;;;;5021628;28;20050;-77
2022/12/21 02:48:23;;;;;;;106.80;29.50;;;8.20;99.90;;;;;;5024006;28;20041;-76
2022/12/21 02:50:53;;;;;;;75.45;26.80;;;8.10;99.90;;;;;;5023669;28;20715;-75
2022/12/21 02:53:24;;;;;;;79.57;26.33;;;8.10;99.90;;;;;;5020589;28;20037;-75
2022/12/21 02:55:50;;;;;;;79.70;26.80;;;8.10;99.90;;;;;;5040893;28;20046;-75
2022/12/21 02:58:23;;;;;;;76.55;27.52;;;8.10;99.90;;;;;;5025933;28;20041;-75
2022/12/21 03:00:48;;;;;;;81.43;26.23;;;8.10;99.90;;;;;;5023937;28;20045;-76
2022/12/21 03:03:49;;;;;;;71.18;27.05;;;8.10;99.90;;;;;;5021927;28;20041;-76
2022/12/21 03:06:32;;;;;;;64.70;26.73;;;8.10;99.90;;;;;;4984258;28;20050;-77
2022/12/21 03:09:07;;;;;;;78.38;28.30;;;8.10;99.90;;;;;;4984319;28;20098;-75
2022/12/21 03:11:57;;;;;;;73.13;27.83;;;8.10;99.90;;;;;;4999866;28;20087;-76
2022/12/21 03:14:48;;;;;;;67.68;26.30;;;8.10;99.90;;;;;;5000762;28;20101;-76
2022/12/21 03:17:33;;;;;;;75.88;25.83;;;8.10;99.90;;;;;;4983925;28;20056;-76
2022/12/21 03:20:28;;;;;;;67.45;25.08;;;8.00;99.90;;;;;;4991507;28;20034;-76
2022/12/21 03:23:27;;;;;;;60.53;24.25;;;8.00;99.90;;;;;;4993172;28;20572;-76
2022/12/21 03:25:58;;;;;;;75.60;23.98;;;7.90;99.90;;;;;;4970708;28;20555;-76
2022/12/21 03:28:29;;;;;;;78.57;25.25;;;7.90;99.90;;;;;;4992058;28;20584;-77
2022/12/21 03:31:01;;;;;;;71.97;24.55;;;7.90;99.90;;;;;;4983763;28;20137;-76
2022/12/21 03:33:32;;;;;;;76.57;25.13;;;7.90;99.90;;;;;;4982810;28;20184;-75
2022/12/21 03:36:24;;;;;;;78.25;27.08;;;7.90;99.90;;;;;;4990514;28;20058;-76
2022/12/21 03:38:54;;;;;;;96.28;28.73;;;7.90;99.90;;;;;;4984768;28;20145;-76
2022/12/21 03:41:26;;;;;;;73.05;27.98;;;7.80;99.90;;;;;;4971524;28;20050;-76
2022/12/21 03:43:54;;;;;;;73.60;27.30;;;7.80;99.90;;;;;;5017092;28;20415;-76
2022/12/21 03:46:29;;;;;;;69.60;26.80;;;7.90;99.90;;;;;;5025837;28;20434;-76
2022/12/21 03:48:57;;;;;;;82.90;28.40;;;7.90;99.90;;;;;;5030249;28;20077;-76
2022/12/21 03:51:46;;;;;;;80.20;28.65;;;7.90;99.90;;;;;;5032113;28;20076;-75
2022/12/21 03:54:30;;;;;;;73.05;28.27;;;7.90;99.90;;;;;;5026010;28;20130;-75
2022/12/21 03:56:57;;;;;;;76.63;27.80;;;7.80;99.90;;;;;;5030586;28;20048;-75
2022/12/21 03:59:23;;;;;;;79.90;28.17;;;7.80;99.90;;;;;;5027278;28;20180;-76
2022/12/21 04:02:21;;;;;;;84.72;29.42;;;7.80;99.90;;;;;;5011277;28;20488;-77
2022/12/21 04:05:19;;;;;;;79.57;29.73;;;7.90;99.90;;;;;;5022480;28;20046;-76
2022/12/21 04:07:47;;;;;;;92.30;31.10;;;7.70;99.90;;;;;;5021586;28;20054;-76
2022/12/21 04:10:16;;;;;;;92.40;30.45;;;7.80;99.90;;;;;;5028854;28;20041;-76
2022/12/21 04:12:42;;;;;;;75.60;30.50;;;7.80;99.90;;;;;;5028494;28;20388;-75
2022/12/21 04:15:12;;;;;;;81.20;30.30;;;7.80;99.90;;;;;;5028000;28;20042;-76
2022/12/21 04:17:39;;;;;;;80.72;30.90;;;7.80;99.90;;;;;;5040494;28;20049;-76
2022/12/21 04:20:08;;;;;;;89.63;31.70;;;7.80;99.90;;;;;;5043742;28;20045;-76
2022/12/21 04:28:10;;;;;;;84.20;30.50;;;7.90;99.90;;;;;;5041765;28;20076;-76
2022/12/21 04:30:41;;;;;;;80.97;30.15;;;7.90;99.90;;;;;;5044907;28;20106;-76
2022/12/21 04:33:09;;;;;;;71.50;29.23;;;7.90;99.90;;;;;;5054468;28;20491;-75
2022/12/21 04:35:35;;;;;;;100.97;32.03;;;7.90;99.90;;;;;;5050319;28;20048;-76
2022/12/21 04:38:01;;;;;;;89.43;32.47;;;8.00;99.90;;;;;;5057032;28;20037;-76
2022/12/21 04:40:27;;;;;;;100.82;35.67;;;7.90;99.90;;;;;;5049766;28;20040;-76
2022/12/21 04:42:53;;;;;;;79.25;33.03;;;8.00;99.90;;;;;;5049547;28;20037;-76
2022/12/21 04:45:19;;;;;;;94.18;34.10;;;8.00;99.90;;;;;;5030724;28;20151;-76
2022/12/21 04:47:45;;;;;;;83.60;32.15;;;8.00;99.90;;;;;;5042240;28;20495;-76
2022/12/21 04:50:11;;;;;;;103.88;34.45;;;8.00;99.90;;;;;;5040981;28;20048;-76
2022/12/21 04:52:36;;;;;;;82.93;31.55;;;7.90;99.90;;;;;;5044596;28;20044;-77
2022/12/21 04:55:02;;;;;;;90.75;30.88;;;7.90;99.90;;;;;;5027081;28;20490;-76
2022/12/21 04:57:29;;;;;;;84.50;30.90;;;7.90;99.90;;;;;;5045035;28;20048;-77
2022/12/21 04:59:55;;;;;;;99.43;33.53;;;7.90;99.90;;;;;;5042538;28;20038;-76
2022/12/21 05:02:20;;;;;;;113.18;34.85;;;8.00;99.90;;;;;;5040378;28;20534;-76
2022/12/21 05:04:46;;;;;;;84.60;32.53;;;8.00;99.90;;;;;;5042372;28;20064;-76
2022/12/21 05:07:12;;;;;;;101.07;32.55;;;8.00;99.90;;;;;;5040880;28;20048;-76
2022/12/21 05:09:37;;;;;;;105.90;32.92;;;8.00;99.90;;;;;;5042870;28;20442;-77
2022/12/21 05:12:03;;;;;;;90.50;32.13;;;8.00;99.90;;;;;;5043435;28;20033;-76
2022/12/21 05:14:29;;;;;;;97.90;33.60;;;8.00;99.90;;;;;;5042238;28;20587;-76
2022/12/21 05:16:54;;;;;;;102.57;34.63;;;8.10;99.90;;;;;;5037558;28;20195;-77
2022/12/21 05:19:20;;;;;;;110.72;34.15;;;8.00;99.90;;;;;;5040448;28;20936;-76
2022/12/21 05:21:46;;;;;;;108.22;33.85;;;8.10;99.90;;;;;;5022289;28;20944;-77
2022/12/21 05:24:12;;;;;;;132.57;35.33;;;8.00;99.90;;;;;;5040968;28;20073;-77
2022/12/21 05:26:37;;;;;;;118.35;35.30;;;8.00;99.90;;;;;;5041808;28;20052;-76
2022/12/21 05:29:03;;;;;;;97.13;34.88;;;8.00;99.90;;;;;;5042724;28;20462;-77
2022/12/21 05:31:29;;;;;;;107.00;34.42;;;8.10;99.90;;;;;;5048307;28;20049;-77
2022/12/21 05:33:55;;;;;;;117.22;37.17;;;8.10;99.90;;;;;;5051911;28;20037;-76
2022/12/21 05:36:21;;;;;;;91.43;34.40;;;8.00;99.90;;;;;;5049036;28;20048;-75
2022/12/21 05:38:47;;;;;;;134.43;36.83;;;8.10;99.90;;;;;;5051346;28;20112;-76
2022/12/21 05:41:15;;;;;;;123.50;36.13;;;8.10;99.90;;;;;;5044617;28;20443;-77
2022/12/21 05:43:41;;;;;;;100.13;36.28;;;8.10;99.90;;;;;;5022226;28;20037;-76
2022/12/21 05:46:09;;;;;;;98.78;35.88;;;8.00;99.90;;;;;;5043885;28;20033;-76
2022/12/21 05:48:34;;;;;;;;;;;8.10;99.90;;;;;;5043980;28;20080;-76
2022/12/21 05:51:10;;;;;;;116.28;35.90;;;8.00;99.90;;;;;;5039994;28;19963;-76
2022/12/21 05:53:38;;;;;;;130.60;36.80;;;8.00;99.90;;;;;;5027550;28;20045;-76
2022/12/21 05:56:05;;;;;;;103.75;35.97;;;8.00;99.90;;;;;;5044951;28;20038;-76
2022/12/21 05:58:30;;;;;;;113.00;35.63;;;8.00;99.90;;;;;;5039805;28;20455;-76
2022/12/21 06:01:00;;;;;;;114.32;36.78;;;8.00;99.90;;;;;;5044605;28;20075;-76
2022/12/21 06:03:26;;;;;;;112.07;37.15;;;7.90;99.90;;;;;;5040813;28;20045;-77
2022/12/21 06:05:51;;;;;;;136.05;37.90;;;7.90;99.90;;;;;;5040052;28;20395;-76
2022/12/21 06:08:17;;;;;;;106.60;35.53;;;7.90;99.90;;;;;;5041212;28;20056;-77
2022/12/21 06:10:44;;;;;;;100.15;35.83;;;7.90;99.90;;;;;;5040431;28;20064;-76
2022/12/21 06:13:09;;;;;;;98.80;36.35;;;8.00;99.90;;;;;;5040550;28;20037;-76
2022/12/21 06:15:35;;;;;;;98.03;34.20;;;7.90;99.90;;;;;;5041555;28;20037;-76
2022/12/21 06:18:01;;;;;;;106.15;34.65;;;7.90;99.90;;;;;;5040337;28;20193;-76
2022/12/21 06:20:26;;;;;;;112.97;37.33;;;7.90;99.90;;;;;;5039724;28;20045;-75
2022/12/21 06:22:52;;;;;;;105.80;35.83;;;7.90;99.90;;;;;;5040485;28;20041;-75
2022/12/21 06:25:17;;;;;;;121.28;38.10;;;8.00;99.90;;;;;;5040564;28;20127;-76
2022/12/21 06:27:43;;;;;;;118.57;35.47;;;7.90;99.90;;;;;;5040942;28;20029;-75
2022/12/21 06:30:09;;;;;;;131.40;37.45;;;7.90;99.90;;;;;;5046446;28;20036;-75
2022/12/21 06:32:36;;;;;;;120.18;37.97;;;7.90;99.90;;;;;;5049594;28;20045;-75
2022/12/21 06:35:01;;;;;;;127.60;39.05;;;7.90;99.90;;;;;;5042732;28;20395;-76
2022/12/21 06:37:27;;;;;;;130.52;40.40;;;7.90;99.90;;;;;;5045285;28;20049;-75
2022/12/21 06:39:52;;;;;;;149.95;40.85;;;7.90;99.90;;;;;;5047055;28;20049;-75
2022/12/21 06:42:18;;;;;;;177.75;39.75;;;7.90;99.90;;;;;;5046688;28;20080;-76
2022/12/21 06:44:44;;;;;;;122.97;38.83;;;7.80;99.90;;;;;;5043353;28;20037;-76
2022/12/21 06:47:09;;;;;;;149.68;39.47;;;7.90;99.90;;;;;;5028052;28;20041;-76
2022/12/21 06:49:35;;;;;;;159.82;39.13;;;7.80;99.90;;;;;;5045072;28;20041;-75
2022/12/21 06:52:00;;;;;;;119.25;39.33;;;7.80;99.90;;;;;;5030051;28;20076;-75
2022/12/21 06:54:26;;;;;;;135.20;40.28;;;7.90;99.90;;;;;;5049701;28;20128;-75
2022/12/21 06:56:52;;;;;;;181.40;42.20;;;7.80;99.90;;;;;;5048564;28;20080;-75
2022/12/21 06:59:17;;;;;;;171.18;40.65;;;7.80;99.90;;;;;;5057711;28;20703;-77
2022/12/21 07:01:43;;;;;;;175.18;41.42;;;7.90;99.90;;;;;;5032786;28;20379;-76
2022/12/21 07:04:08;;;;;;;237.07;41.13;;;7.80;99.90;;;;;;5047370;28;20090;-77
2022/12/21 07:06:34;;;;;;;259.83;41.83;;;7.80;99.90;;;;;;5051570;28;20499;-78
2022/12/21 07:09:00;;;;;;;258.80;40.88;;;7.80;99.90;;;;;;5052957;28;20041;-76
2022/12/21 07:11:29;;;;;;;180.35;40.85;;;7.80;99.90;;;;;;5046036;28;20041;-77
2022/12/21 07:13:54;;;;;;;293.90;43.47;;;7.70;99.90;;;;;;5053073;28;20063;-77
2022/12/21 07:16:21;;;;;;;255.02;42.20;;;7.80;99.90;;;;;;5068675;28;20482;-76
2022/12/21 07:18:47;;;;;;;188.95;40.42;;;7.80;99.90;;;;;;5049310;28;20140;-77
2022/12/21 07:21:16;;;;;;;218.02;39.88;;;7.70;99.90;;;;;;5049767;28;20033;-77
2022/12/21 07:23:42;;;;;;;183.98;39.53;;;7.70;99.90;;;;;;5030974;28;20060;-78
2022/12/21 07:26:11;;;;;;;158.43;38.22;;;7.70;99.90;;;;;;5028455;28;20048;-77
2022/12/21 07:28:37;;;;;;;226.93;40.92;;;7.70;99.90;;;;;;5044259;28;20041;-77
2022/12/21 07:31:08;;;;;;;175.95;37.72;;;7.70;99.90;;;;;;5052478;28;20451;-78
2022/12/21 07:33:34;;;;;;;160.60;37.80;;;7.70;99.90;;;;;;5031654;28;20043;-75
2022/12/21 07:36:02;;;;;;;166.27;37.05;;;7.70;99.90;;;;;;5047675;28;20080;-77
2022/12/21 07:38:28;;;;;;;166.63;36.92;;;7.70;99.90;;;;;;5050314;28;20064;-77
2022/12/21 07:41:03;;;;;;;289.83;42.28;;;7.70;99.90;;;;;;5044020;28;20045;-78
2022/12/21 07:43:30;;;;;;;139.27;37.70;;;7.60;99.90;;;;;;5046466;28;20060;-77
2022/12/21 07:45:56;;;;;;;135.05;35.95;;;7.60;99.90;;;;;;5048701;28;20033;-78
2022/12/21 07:48:22;;;;;;;209.40;39.67;;;7.60;99.90;;;;;;5045436;28;20049;-77
2022/12/21 07:50:50;;;;;;;136.45;35.13;;;7.70;99.90;;;;;;5032147;28;20044;-78
2022/12/21 07:53:16;;;;;;;171.88;37.28;;;7.70;99.90;;;;;;5023612;28;20541;-77
2022/12/21 07:55:43;;;;;;;257.92;40.80;;;7.60;99.90;;;;;;5038620;28;20511;-76
2022/12/21 07:58:09;;;;;;;177.20;36.75;;;7.60;99.90;;;;;;5035975;28;20048;-77
2022/12/21 08:00:35;;;;;;;130.40;35.72;;;7.60;99.90;;;;;;5046892;28;20048;-77
2022/12/21 08:03:01;;;;;;;136.95;35.70;;;7.60;99.90;;;;;;5020199;28;20100;-77
2022/12/21 08:05:29;;;;;;;139.65;38.22;;;7.60;99.90;;;;;;5465262;22;20495;-76
2022/12/21 08:08:05;;;;;;;162.07;37.65;;;7.60;99.90;;;;;;5083120;28;20055;-77
2022/12/21 08:10:31;;;;;;;146.93;36.55;;;7.60;99.90;;;;;;5063037;28;20470;-52
2022/12/21 08:12:56;;;;;;;163.77;39.28;;;7.60;99.90;;;;;;5064689;28;20044;-51
2022/12/21 08:15:22;;;;;;;173.77;37.55;;;7.60;99.90;;;;;;5071115;28;20342;-53
2022/12/21 08:17:51;;;;;;;175.32;38.00;;;7.60;99.90;;;;;;5068622;28;20037;-52
2022/12/21 08:20:17;;;;;;;185.02;39.83;;;7.60;99.90;;;;;;5060350;28;20494;-51
2022/12/21 08:22:42;;;;;;;235.25;41.88;;;7.60;99.90;;;;;;5054926;28;20055;-53
2022/12/21 08:25:08;;;;;;;116.20;39.17;;;7.60;99.90;;;;;;5062887;28;20126;-55
2022/12/21 08:27:34;;;;;;;194.88;41.88;;;7.60;99.90;;;;;;5068328;28;20098;-54
2022/12/21 08:30:00;;;;;;;154.68;41.33;;;7.60;99.90;;;;;;5068086;28;20051;-51
2022/12/21 08:32:25;;;;;;;129.13;40.35;;;7.70;99.90;;;;;;5074162;28;20041;-51
2022/12/21 08:34:51;;;;;;;212.55;42.47;;;7.60;99.90;;;;;;5074482;28;20070;-50
2022/12/21 08:37:17;;;;;;;145.55;42.70;;;7.70;99.90;;;;;;5054069;28;20410;-52
2022/12/21 08:39:43;;;;;;;135.98;42.95;;;7.70;99.90;;;;;;5070104;28;20076;-51
2022/12/21 08:42:09;;;;;;;177.25;42.35;;;7.70;99.90;;;;;;5073323;28;20040;-50
2022/12/21 08:44:34;;;;;;;133.05;39.20;;;7.70;99.90;;;;;;5076619;28;20093;-51
2022/12/21 08:47:00;;;;;;;151.40;41.03;;;7.70;99.90;;;;;;5085193;28;20410;-52
2022/12/21 08:49:25;;;;;;;128.75;39.25;;;7.70;99.90;;;;;;5073843;28;20516;-51
2022/12/21 08:51:51;;;;;;;118.70;38.50;;;7.70;99.90;;;;;;5068726;28;20033;-52
2022/12/21 08:54:17;;;;;;;102.20;36.25;;;7.70;99.90;;;;;;5054998;28;20045;-50
2022/12/21 08:56:42;;;;;;;111.90;38.10;;;7.70;99.90;;;;;;5072392;28;20060;-50
2022/12/21 08:59:08;;;;;;;96.65;37.42;;;7.70;99.90;;;;;;5072653;28;20044;-51
2022/12/21 09:01:35;;;;;;;104.90;36.90;;;7.70;99.90;;;;;;5073680;28;20049;-50
2022/12/21 09:04:01;;;;;;;101.30;35.35;;;7.70;99.90;;;;;;5073755;28;20040;-52
2022/12/21 09:06:26;;;;;;;89.55;34.40;;;7.80;99.90;;;;;;5055185;28;20177;-50
2022/12/21 09:08:52;;;;;;;93.22;34.90;;;7.70;99.90;;;;;;5067593;28;20060;-50
2022/12/21 09:11:20;;;;;;;97.07;35.53;;;7.80;99.90;;;;;;5071420;28;20041;-50
2022/12/21 09:13:46;;;;;;;90.07;34.72;;;7.80;99.90;;;;;;5071168;28;20036;-51
2022/12/21 09:16:14;;;;;;;84.05;32.88;;;7.80;99.90;;;;;;5070587;28;20048;-51
2022/12/21 09:18:40;;;;;;;101.07;34.88;;;7.80;99.90;;;;;;5055617;28;20040;-50
2022/12/21 09:21:06;;;;;;;125.68;36.95;;;7.90;99.90;;;;;;5073193;28;20048;-50
2022/12/21 09:23:31;;;;;;;128.82;39.38;;;7.90;99.90;;;;;;5072486;28;20062;-54
2022/12/21 09:25:57;;;;;;;99.32;34.13;;;7.90;99.90;;;;;;5066132;28;20072;-53
2022/12/21 09:28:23;;;;;;;94.97;34.38;;;7.90;99.90;;;;;;5053570;28;20079;-51
2022/12/21 09:30:49;;;;;;;90.28;32.83;;;7.90;99.90;;;;;;5053321;28;20048;-52
2022/12/21 09:33:15;;;;;;;83.20;31.92;;;7.90;99.90;;;;;;5062903;28;20040;-51
2022/12/21 09:35:40;;;;;;;79.55;32.15;;;7.90;99.90;;;;;;5071878;28;20072;-53
2022/12/21 09:38:06;;;;;;;83.90;32.10;;;7.90;99.90;;;;;;5073242;28;20037;-52
2022/12/21 09:40:33;;;;;;;74.65;31.88;;;7.90;99.90;;;;;;5073148;28;20048;-53
2022/12/21 09:43:22;;;;;;;83.70;32.03;;;7.90;99.90;;;;;;5072338;28;20040;-55
2022/12/21 09:46:11;;;;;;;78.75;31.02;;;7.90;99.90;;;;;;5071324;28;20159;-56
2022/12/21 09:48:48;;;;;;;80.25;32.70;;;8.00;99.90;;;;;;5067387;28;20036;-55
2022/12/21 09:51:24;;;;;;;81.22;32.60;;;8.20;99.90;;;;;;5074833;28;20816;-55
2022/12/21 09:53:59;;;;;;;78.18;31.63;;;8.20;99.90;;;;;;5074057;28;20128;-55
2022/12/21 09:56:26;;;;;;;78.13;31.90;;;8.20;99.90;;;;;;5072914;28;20517;-55
2022/12/21 09:58:53;;;;;;;80.30;32.85;;;8.40;99.90;;;;;;5072230;28;20082;-55
2022/12/21 10:01:22;;;;;;;81.25;31.98;;;8.40;99.90;;;;;;5054958;28;20116;-51
2022/12/21 10:04:06;;;;;;;78.95;32.28;;;8.40;99.90;;;;;;5069425;28;20059;-55
2022/12/21 10:06:50;;;;;;;66.20;30.42;;;8.40;99.90;;;;;;5054997;28;20051;-53
2022/12/21 10:09:24;;;;;;;65.95;29.67;;;8.40;99.90;;;;;;5073200;28;20048;-53
2022/12/21 10:11:55;;;;;;;64.25;29.58;;;8.40;99.90;;;;;;5073312;28;20097;-54
2022/12/21 10:14:21;;;;;;;61.22;29.65;;;8.40;99.90;;;;;;5070741;28;20049;-54
2022/12/21 10:16:54;;;;;;;62.45;28.48;;;8.50;99.90;;;;;;5071003;28;20036;-52
2022/12/21 10:19:31;;;;;;;62.45;28.55;;;8.40;99.90;;;;;;5054195;28;20052;-52
2022/12/21 10:22:11;;;;;;;59.60;28.27;;;8.40;99.90;;;;;;5054244;28;20045;-51
2022/12/21 10:24:50;;;;;;;58.38;27.50;;;8.40;99.90;;;;;;5071716;28;20040;-51
2022/12/21 10:27:47;;;;;;;67.55;28.98;;;8.40;99.90;;;;;;5069998;28;20401;-54
2022/12/21 10:30:15;;;;;;;70.50;27.87;;;8.40;99.90;;;;;;5044847;28;20124;-51
2022/12/21 10:32:45;;;;;;;103.07;33.75;;;8.40;99.90;;;;;;5063504;28;20041;-52
2022/12/21 10:35:18;;;;;;;117.53;35.33;;;8.40;99.90;;;;;;5068288;28;20123;-55
2022/12/21 10:37:50;;;;;;;97.25;31.13;;;8.40;99.90;;;;;;5062436;28;20087;-54
2022/12/21 10:40:16;;;;;;;129.38;36.22;;;8.50;99.90;;;;;;5066373;28;20079;-53
2022/12/21 10:42:49;;;;;;;111.50;35.72;;;8.50;99.90;;;;;;5069437;28;20052;-53
2022/12/21 10:45:17;;;;;;;83.00;31.13;;;8.50;99.90;;;;;;5051376;28;20301;-52
2022/12/21 10:47:44;;;;;;;82.18;31.33;;;8.50;99.90;;;;;;5056881;28;20090;-51
2022/12/21 10:50:44;;;;;;;84.53;31.03;;;8.50;99.90;;;;;;5069476;28;20052;-55
2022/12/21 10:53:25;;;;;;;80.32;30.77;;;8.50;99.90;;;;;;5055841;23;20136;-51
2022/12/21 10:55:56;;;;;;;70.22;31.08;;;8.50;99.90;;;;;;5057963;28;20060;-51
2022/12/21 10:58:31;;;;;;;71.90;30.10;;;8.60;99.90;;;;;;5058665;28;20084;-53
2022/12/21 11:01:03;;;;;;;69.18;29.88;;;8.60;99.90;;;;;;5069242;28;20045;-50
2022/12/21 11:03:31;;;;;;;67.82;30.52;;;8.50;99.90;;;;;;5062414;28;20105;-51
2022/12/21 11:06:09;;;;;;;68.35;32.00;;;8.50;99.90;;;;;;5067331;28;20067;-52
2022/12/21 11:08:46;;;;;;;74.75;32.75;;;8.40;99.90;;;;;;5070086;28;20506;-55
2022/12/21 11:11:35;;;;;;;74.68;33.58;;;8.40;99.90;;;;;;5068887;28;20040;-55
2022/12/21 11:14:16;;;;;;;78.18;32.95;;;8.40;99.90;;;;;;5067949;28;20123;-56
2022/12/21 11:16:44;;;;;;;74.50;34.70;;;8.40;99.90;;;;;;5065658;28;20143;-55
2022/12/21 11:19:16;;;;;;;81.28;35.40;;;8.40;99.90;;;;;;5072921;28;20051;-54
2022/12/21 11:21:54;;;;;;;78.57;35.63;;;8.40;99.90;;;;;;5072731;28;20424;-54
2022/12/21 11:24:24;;;;;;;74.60;35.53;;;8.40;99.90;;;;;;5069114;28;20161;-52
2022/12/21 11:27:10;;;;;;;81.50;35.97;;;8.40;99.90;;;;;;5066402;28;20661;-53
2022/12/21 11:29:46;;;;;;;76.38;34.50;;;8.40;99.90;;;;;;5072845;28;20138;-51
2022/12/21 11:32:13;;;;;;;72.07;36.20;;;8.40;99.90;;;;;;5073541;28;20083;-53
2022/12/21 11:34:41;;;;;;;76.03;36.45;;;8.40;99.90;;;;;;5074659;28;20049;-52
2022/12/21 11:37:35;;;;;;;80.43;37.73;;;8.50;99.90;;;;;;5082943;28;20421;-56
2022/12/21 11:40:13;;;;;;;77.00;37.47;;;8.50;99.90;;;;;;5053651;28;20083;-56
2022/12/21 11:42:57;;;;;;;80.43;37.95;;;8.60;99.90;;;;;;5071049;28;20050;-57
2022/12/21 11:45:44;;;;;;;75.32;37.55;;;8.60;99.90;;;;;;5073121;28;20048;-55
2022/12/21 11:48:22;;;;;;;77.53;38.38;;;8.60;99.90;;;;;;5071831;28;20455;-55
2022/12/21 11:51:06;;;;;;;;;;;8.70;99.90;;;;;;5068140;28;20079;-54
2022/12/21 11:54:16;;;;;;;79.00;37.25;;;8.70;99.90;;;;;;5066626;28;20031;-55
2022/12/21 11:57:11;;;;;;;75.25;35.05;;;8.70;99.90;;;;;;5074966;28;20048;-52
2022/12/21 11:59:55;;;;;;;74.03;35.42;;;8.70;99.90;;;;;;5063149;28;20044;-56
2022/12/21 12:02:26;;;;;;;70.78;35.70;;;8.80;99.90;;;;;;5073356;28;20117;-55
2022/12/21 12:05:24;;;;;;;66.47;34.22;;;8.80;99.90;;;;;;5073563;28;20044;-52
2022/12/21 12:07:58;;;;;;;71.18;33.60;;;8.70;99.90;;;;;;5074659;28;20080;-53
2022/12/21 12:10:57;;;;;;;70.32;34.60;;;8.70;99.90;;;;;;5073996;28;20166;-54
2022/12/21 12:13:40;;;;;;;62.10;32.92;;;8.60;99.90;;;;;;5074630;28;20045;-52
2022/12/21 12:16:21;;;;;;;64.90;33.00;;;8.60;99.90;;;;;;5065097;28;20056;-52
2022/12/21 12:19:01;;;;;;;95.97;38.20;;;8.60;99.90;;;;;;5054304;28;20516;-52
2022/12/21 12:22:01;;;;;;;62.03;33.13;;;8.50;99.90;;;;;;5054781;28;20044;-51
2022/12/21 12:24:57;;;;;;;69.13;34.63;;;8.60;99.90;;;;;;5072800;28;20087;-53
2022/12/21 12:27:47;;;;;;;65.47;31.83;;;8.70;99.90;;;;;;5073579;28;20075;-56
2022/12/21 12:30:20;;;;;;;63.38;31.88;;;8.70;99.90;;;;;;5074236;28;20052;-52
2022/12/21 12:33:08;;;;;;;62.83;31.55;;;8.70;99.90;;;;;;5069219;28;20048;-51
2022/12/21 12:35:51;;;;;;;61.72;31.55;;;8.60;99.90;;;;;;5072603;28;20041;-51
2022/12/21 12:38:54;;;;;;;58.38;31.67;;;8.70;99.90;;;;;;5074019;28;20489;-51
2022/12/21 12:41:25;;;;;;;60.97;31.48;;;8.70;99.90;;;;;;5073732;28;20068;-51
2022/12/21 12:44:01;;;;;;;59.83;29.55;;;8.70;99.90;;;;;;5073670;28;20048;-52
2022/12/21 12:46:59;;;;;;;59.35;32.50;;;8.70;99.90;;;;;;5071145;28;20051;-51
2022/12/21 12:49:52;;;;;;;60.78;33.13;;;8.80;99.90;;;;;;5071712;28;20044;-52
2022/12/21 12:52:43;;;;;;;63.28;34.20;;;8.90;99.90;;;;;;5056631;28;20071;-53
2022/12/21 12:55:17;;;;;;;60.78;33.28;;;9.00;99.90;;;;;;5073522;28;20486;-51
2022/12/21 12:58:24;;;;;;;60.05;32.63;;;8.90;99.90;;;;;;5082796;28;20047;-52
2022/12/21 13:01:14;;;;;;;53.33;31.63;;;8.90;99.90;;;;;;5043826;28;20048;-54
2022/12/21 13:04:10;;;;;;;58.95;32.28;;;8.90;99.90;;;;;;5093674;28;20086;-53
2022/12/21 13:06:51;;;;;;;49.97;31.80;;;8.90;99.90;;;;;;5090395;28;20049;-53